createdAt,value
2018-06-17T00:00:23.612Z,92.37
2018-06-17T00:02:58.049Z,92.55
2018-06-17T00:05:32.620Z,92.32
2018-06-17T00:08:07.047Z,92.25
2018-06-17T00:10:41.656Z,91.73
2018-06-17T00:13:16.312Z,92.35
2018-06-17T00:15:50.713Z,92.16
2018-06-17T00:18:25.072Z,91.71
2018-06-17T00:20:59.525Z,92.25
2018-06-17T00:23:34.048Z,91.98
2018-06-17T00:26:09.048Z,92.40
2018-06-17T00:28:43.768Z,92.29
2018-06-17T00:31:18.212Z,92.34
2018-06-17T00:33:52.844Z,92.80
2018-06-17T00:36:27.256Z,92.31
2018-06-17T00:39:01.669Z,92.34
2018-06-17T00:41:36.472Z,92.47
2018-06-17T00:44:11.033Z,91.18
2018-06-17T00:46:45.489Z,91.19
2018-06-17T00:49:20.225Z,90.91
2018-06-17T00:51:54.857Z,91.28
2018-06-17T00:54:29.321Z,91.06
2018-06-17T00:57:15.183Z,91.80
2018-06-17T00:59:49.600Z,90.39
2018-06-17T01:02:24.342Z,92.17
2018-06-17T01:04:58.748Z,91.47
2018-06-17T01:07:33.249Z,91.95
2018-06-17T01:10:07.803Z,91.70
2018-06-17T01:12:42.484Z,91.30
2018-06-17T01:15:17.352Z,91.59
2018-06-17T01:17:52.012Z,92.22
2018-06-17T01:20:26.421Z,91.63
2018-06-17T01:23:01.017Z,91.45
2018-06-17T01:25:35.523Z,90.24
2018-06-17T01:28:09.924Z,89.49
2018-06-17T01:30:44.431Z,87.89
2018-06-17T01:33:19.005Z,89.31
2018-06-17T01:35:53.536Z,89.09
2018-06-17T01:38:28.115Z,90.08
2018-06-17T01:41:02.536Z,89.86
2018-06-17T01:43:37.127Z,90.72
2018-06-17T01:46:11.594Z,90.48
2018-06-17T01:48:46.482Z,88.79
2018-06-17T01:51:21.136Z,90.50
2018-06-17T01:53:55.578Z,90.26
2018-06-17T01:56:30.232Z,91.37
2018-06-17T01:59:04.750Z,90.75
2018-06-17T02:01:39.752Z,90.24
2018-06-17T02:05:20.459Z,90.15
2018-06-17T02:08:00.509Z,89.66
2018-06-17T02:10:40.583Z,90.49
2018-06-17T02:13:15.220Z,90.23
2018-06-17T02:15:49.889Z,90.05
2018-06-17T02:18:24.368Z,90.59
2018-06-17T02:20:58.954Z,90.57
2018-06-17T02:23:33.727Z,91.02
2018-06-17T02:26:08.250Z,91.41
2018-06-17T02:28:42.835Z,91.59
2018-06-17T02:31:17.357Z,91.88
2018-06-17T02:33:52.140Z,91.73
2018-06-17T02:36:26.658Z,91.58
2018-06-17T02:39:01.288Z,90.20
2018-06-17T02:41:36.108Z,89.71
2018-06-17T02:44:10.688Z,89.05
2018-06-17T02:46:50.520Z,89.98
2018-06-17T02:49:30.518Z,89.44
2018-06-17T02:52:11.171Z,88.33
2018-06-17T02:54:46.762Z,87.47
2018-06-17T02:57:21.375Z,88.50
2018-06-17T02:59:55.785Z,88.38
2018-06-17T03:02:30.245Z,87.27
2018-06-17T03:05:04.841Z,87.14
2018-06-17T03:07:39.444Z,86.25
2018-06-17T03:10:13.930Z,88.01
2018-06-17T03:12:48.325Z,87.85
2018-06-17T03:15:22.716Z,87.72
2018-06-17T03:17:57.166Z,88.36
2018-06-17T03:20:31.610Z,86.74
2018-06-17T03:23:06.044Z,86.62
2018-06-17T03:25:46.002Z,87.25
2018-06-17T03:28:25.819Z,87.37
2018-06-17T03:31:05.785Z,86.66
2018-06-17T03:33:45.752Z,85.54
2018-06-17T03:36:20.622Z,85.93
2018-06-17T03:38:55.248Z,86.34
2018-06-17T03:41:29.824Z,86.02
2018-06-17T03:44:04.171Z,86.31
2018-06-17T03:46:38.817Z,86.95
2018-06-17T03:49:13.361Z,87.24
2018-06-17T03:51:48.168Z,87.23
2018-06-17T03:54:22.798Z,86.73
2018-06-17T03:59:56.693Z,84.84
2018-06-17T04:02:33.620Z,87.16
2018-06-17T04:05:13.496Z,86.85
2018-06-17T04:07:47.988Z,85.79
2018-06-17T04:10:22.586Z,85.22
2018-06-17T04:12:57.001Z,85.24
2018-06-17T04:15:31.542Z,84.85
2018-06-17T04:18:07.004Z,85.92
2018-06-17T04:20:41.666Z,85.74
2018-06-17T04:23:16.056Z,84.50
2018-06-17T04:25:50.658Z,85.04
2018-06-17T04:28:25.309Z,84.03
2018-06-17T04:30:59.859Z,85.43
2018-06-17T04:33:34.532Z,84.94
2018-06-17T04:36:08.927Z,82.52
2018-06-17T04:38:43.473Z,82.75
2018-06-17T04:41:17.920Z,81.34
2018-06-17T04:43:52.393Z,82.42
2018-06-17T04:46:26.756Z,81.02
2018-06-17T04:49:01.242Z,79.12
2018-06-17T04:51:35.812Z,80.12
2018-06-17T04:54:10.964Z,78.89
2018-06-17T04:56:45.528Z,77.86
2018-06-17T04:59:19.911Z,78.83
2018-06-17T05:01:54.395Z,79.12
2018-06-17T05:04:28.933Z,77.99
2018-06-17T05:07:03.758Z,78.62
2018-06-17T05:09:38.265Z,77.47
2018-06-17T05:12:12.751Z,79.09
2018-06-17T05:14:47.402Z,79.42
2018-06-17T05:17:22.162Z,80.23
2018-06-17T05:19:56.558Z,79.31
2018-06-17T05:22:31.085Z,78.75
2018-06-17T05:25:05.612Z,78.93
2018-06-17T05:27:40.230Z,79.00
2018-06-17T05:30:14.716Z,79.52
2018-06-17T05:32:49.112Z,79.00
2018-06-17T05:35:23.724Z,79.67
2018-06-17T05:37:58.293Z,80.37
2018-06-17T05:40:33.987Z,78.61
2018-06-17T05:43:08.423Z,79.06
2018-06-17T05:45:42.851Z,78.25
2018-06-17T05:48:17.088Z,78.27
2018-06-17T05:50:51.320Z,78.04
2018-06-17T05:53:25.859Z,78.34
2018-06-17T05:56:00.119Z,78.57
2018-06-17T05:58:34.564Z,79.11
2018-06-17T06:01:08.985Z,76.83
2018-06-17T06:03:43.404Z,76.29
2018-06-17T06:06:17.956Z,73.25
2018-06-17T06:08:52.461Z,74.60
2018-06-17T06:11:26.902Z,75.34
2018-06-17T06:14:01.246Z,75.86
2018-06-17T06:16:35.600Z,73.22
2018-06-17T06:19:09.944Z,71.99
2018-06-17T06:21:44.232Z,70.80
2018-06-17T06:24:18.640Z,70.84
2018-06-17T06:26:52.960Z,71.28
2018-06-17T06:29:27.655Z,70.48
2018-06-17T06:32:01.924Z,73.19
2018-06-17T06:34:36.355Z,70.37
2018-06-17T06:37:10.779Z,69.54
2018-06-17T06:39:45.154Z,70.53
2018-06-17T06:42:19.512Z,68.33
2018-06-17T06:44:53.826Z,67.35
2018-06-17T06:47:28.236Z,66.37
2018-06-17T06:50:02.617Z,66.01
2018-06-17T06:52:37.001Z,65.06
2018-06-17T06:55:11.621Z,64.53
2018-06-17T06:57:46.011Z,60.29
2018-06-17T07:00:20.339Z,60.14
2018-06-17T07:03:06.086Z,60.54
2018-06-17T07:05:51.983Z,60.02
2018-06-17T07:08:37.874Z,60.24
2018-06-17T07:11:12.349Z,59.09
2018-06-17T07:13:46.777Z,59.58
2018-06-17T07:16:32.353Z,57.84
2018-06-17T07:19:06.736Z,58.17
2018-06-17T07:21:41.168Z,56.89
2018-06-17T07:24:15.543Z,53.16
2018-06-17T07:27:01.419Z,54.63
2018-06-17T07:29:45.567Z,56.12
2018-06-17T07:32:19.783Z,57.88
2018-06-17T07:34:54.076Z,55.99
2018-06-17T07:37:28.357Z,56.60
2018-06-17T07:41:06.118Z,60.50
2018-06-17T07:43:40.631Z,61.26
2018-06-17T07:46:15.056Z,62.31
2018-06-17T07:49:26.178Z,63.93
2018-06-17T08:00:55.552Z,56.85
2018-06-17T08:03:30.041Z,58.73
2018-06-17T08:06:04.296Z,57.33
2018-06-17T08:08:38.667Z,55.74
2018-06-17T08:11:13.098Z,54.21
2018-06-17T08:13:47.368Z,54.15
2018-06-17T08:16:21.799Z,55.24
2018-06-17T08:18:56.084Z,54.20
2018-06-17T08:21:30.724Z,53.55
2018-06-17T08:24:05.161Z,53.86
2018-06-17T08:26:39.484Z,54.24
2018-06-17T08:29:13.920Z,53.28
2018-06-17T08:31:48.195Z,57.80
2018-06-17T08:34:22.688Z,57.52
2018-06-17T08:36:57.036Z,55.14
2018-06-17T08:39:31.390Z,55.93
2018-06-17T08:42:05.820Z,54.57
2018-06-17T08:44:40.211Z,55.52
2018-06-17T08:47:14.667Z,56.51
2018-06-17T08:52:45.783Z,55.93
2018-06-17T08:55:20.387Z,54.95
2018-06-17T08:57:54.930Z,54.36
2018-06-17T09:00:29.328Z,54.59
2018-06-17T09:03:03.803Z,55.31
2018-06-17T09:05:38.200Z,55.23
2018-06-17T09:08:12.465Z,56.20
2018-06-17T09:10:46.675Z,56.43
2018-06-17T09:13:20.979Z,56.50
2018-06-17T09:15:56.018Z,56.57
2018-06-17T09:18:30.788Z,57.36
2018-06-17T09:21:05.418Z,56.53
2018-06-17T09:23:39.817Z,56.91
2018-06-17T09:26:14.557Z,55.99
2018-06-17T09:28:49.248Z,56.67
2018-06-17T09:31:24.165Z,56.61
2018-06-17T09:33:58.721Z,55.91
2018-06-17T09:36:33.429Z,56.12
2018-06-17T09:39:08.776Z,56.14
2018-06-17T09:41:43.265Z,54.33
2018-06-17T09:44:17.830Z,51.24
2018-06-17T09:46:52.337Z,51.86
2018-06-17T09:49:26.930Z,50.94
2018-06-17T09:52:01.424Z,52.01
2018-06-17T09:54:35.792Z,50.93
2018-06-17T09:57:10.160Z,49.83
2018-06-17T09:59:45.083Z,48.79
2018-06-17T10:02:19.790Z,50.46
2018-06-17T10:04:54.274Z,51.57
2018-06-17T10:07:28.662Z,51.58
2018-06-17T10:10:15.365Z,50.28
2018-06-17T10:12:49.861Z,51.21
2018-06-17T10:15:24.388Z,52.67
2018-06-17T10:17:58.939Z,51.46
2018-06-17T10:20:33.510Z,52.96
2018-06-17T10:23:08.292Z,51.73
2018-06-17T10:25:42.794Z,52.07
2018-06-17T10:28:17.554Z,51.18
2018-06-17T10:30:52.849Z,51.02
2018-06-17T10:33:27.344Z,51.32
2018-06-17T10:36:01.863Z,51.73
2018-06-17T10:38:36.169Z,50.86
2018-06-17T10:41:10.435Z,51.37
2018-06-17T10:43:44.879Z,53.40
2018-06-17T10:46:19.299Z,51.18
2018-06-17T10:48:53.773Z,50.07
2018-06-17T10:51:28.021Z,47.96
2018-06-17T10:54:02.451Z,48.86
2018-06-17T10:56:36.726Z,48.65
2018-06-17T10:59:11.184Z,50.47
2018-06-17T11:01:45.831Z,49.57
2018-06-17T11:04:20.575Z,49.13
2018-06-17T11:07:09.523Z,50.25
2018-06-17T11:09:43.844Z,51.96
2018-06-17T11:12:18.208Z,52.41
2018-06-17T11:14:52.495Z,53.03
2018-06-17T11:17:27.034Z,51.34
2018-06-17T11:20:01.292Z,51.47
2018-06-17T11:22:35.643Z,50.09
2018-06-17T11:25:10.228Z,48.42
2018-06-17T11:27:44.479Z,47.16
2018-06-17T11:30:18.796Z,43.98
2018-06-17T11:32:53.235Z,43.54
2018-06-17T11:35:27.526Z,43.54
2018-06-17T11:38:01.905Z,46.27
2018-06-17T11:40:36.315Z,47.09
2018-06-17T11:43:10.667Z,46.39
2018-06-17T11:45:45.259Z,46.94
2018-06-17T11:48:19.803Z,48.02
2018-06-17T11:50:54.114Z,47.47
2018-06-17T11:53:28.323Z,48.25
2018-06-17T11:56:02.692Z,48.88
2018-06-17T11:58:37.075Z,49.16
2018-06-17T12:01:11.552Z,49.30
2018-06-17T12:03:45.839Z,48.21
2018-06-17T12:06:20.536Z,49.98
2018-06-17T12:08:55.039Z,50.53
2018-06-17T12:11:29.391Z,50.52
2018-06-17T12:14:03.819Z,52.51
2018-06-17T12:16:38.152Z,50.70
2018-06-17T12:19:12.507Z,52.68
2018-06-17T12:21:46.792Z,50.81
2018-06-17T12:24:21.219Z,51.93
2018-06-17T12:26:55.644Z,52.79
2018-06-17T12:29:30.040Z,52.02
2018-06-17T12:32:04.444Z,50.08
2018-06-17T12:34:38.779Z,49.71
2018-06-17T12:37:13.099Z,49.94
2018-06-17T12:39:47.440Z,49.40
2018-06-17T12:42:21.867Z,47.45
2018-06-17T12:44:56.161Z,49.45
2018-06-17T12:47:30.651Z,48.28
2018-06-17T12:50:05.084Z,48.88
2018-06-17T12:52:39.304Z,47.87
2018-06-17T12:55:13.792Z,48.90
2018-06-17T12:57:48.188Z,49.21
2018-06-17T13:00:22.543Z,48.57
2018-06-17T13:02:56.954Z,48.65
2018-06-17T13:05:31.648Z,47.91
2018-06-17T13:08:06.532Z,47.63
2018-06-17T13:10:41.105Z,46.34
2018-06-17T13:13:15.769Z,46.17
2018-06-17T13:15:50.218Z,47.84
2018-06-17T13:18:24.834Z,47.99
2018-06-17T13:20:59.441Z,46.14
2018-06-17T13:23:34.424Z,47.47
2018-06-17T13:26:08.939Z,47.12
2018-06-17T13:28:43.617Z,47.68
2018-06-17T13:31:18.064Z,46.90
2018-06-17T13:33:52.428Z,45.61
2018-06-17T13:36:27.228Z,44.15
2018-06-17T13:39:01.948Z,45.88
2018-06-17T13:41:36.500Z,45.05
2018-06-17T13:44:11.132Z,44.64
2018-06-17T13:46:45.762Z,44.31
2018-06-17T13:49:20.328Z,43.80
2018-06-17T13:51:54.928Z,44.23
2018-06-17T13:54:29.310Z,44.44
2018-06-17T13:57:03.781Z,43.45
2018-06-17T13:59:38.285Z,44.04
2018-06-17T14:02:12.782Z,44.68
2018-06-17T14:04:47.292Z,43.40
2018-06-17T14:07:21.778Z,43.59
2018-06-17T14:09:56.535Z,43.91
2018-06-17T14:12:31.141Z,44.66
2018-06-17T14:15:06.357Z,45.28
2018-06-17T14:17:41.126Z,47.35
2018-06-17T14:20:15.681Z,46.92
2018-06-17T14:22:50.231Z,48.63
2018-06-17T14:25:24.650Z,49.76
2018-06-17T14:27:59.113Z,48.37
2018-06-17T14:30:33.686Z,47.85
2018-06-17T14:33:08.178Z,47.83
2018-06-17T14:35:42.615Z,47.74
2018-06-17T14:38:17.432Z,47.64
2018-06-17T14:40:57.385Z,45.86
2018-06-17T14:43:37.284Z,47.98
2018-06-17T14:46:17.225Z,49.33
2018-06-17T14:48:57.092Z,46.29
2018-06-17T14:51:37.006Z,47.50
2018-06-17T14:54:11.619Z,46.98
2018-06-17T14:56:46.208Z,47.74
2018-06-17T14:59:20.674Z,46.27
2018-06-17T15:01:55.341Z,47.44
2018-06-17T15:04:29.919Z,48.24
2018-06-17T15:07:04.355Z,48.80
2018-06-17T15:09:38.846Z,50.70
2018-06-17T15:12:14.282Z,47.61
2018-06-17T15:14:49.193Z,46.74
2018-06-17T15:17:23.716Z,47.81
2018-06-17T15:19:58.309Z,46.61
2018-06-17T15:22:32.889Z,47.18
2018-06-17T15:25:07.851Z,47.52
2018-06-17T15:27:42.545Z,47.72
2018-06-17T15:30:17.213Z,47.09
2018-06-17T15:32:57.008Z,47.87
2018-06-17T15:35:36.742Z,48.18
2018-06-17T15:38:16.689Z,48.11
2018-06-17T15:40:56.453Z,48.00
2018-06-17T15:43:30.956Z,47.20
2018-06-17T15:46:05.656Z,47.45
2018-06-17T15:48:40.279Z,51.85
2018-06-17T15:51:14.716Z,48.23
2018-06-17T15:53:49.573Z,51.16
2018-06-17T15:56:24.333Z,48.62
2018-06-17T15:58:58.888Z,49.58
2018-06-17T16:01:33.465Z,49.83
2018-06-17T16:04:07.946Z,48.32
2018-06-17T16:06:42.501Z,48.56
2018-06-17T16:09:17.076Z,49.41
2018-06-17T16:11:56.870Z,48.10
2018-06-17T16:14:36.729Z,50.92
2018-06-17T16:17:16.676Z,51.68
2018-06-17T16:19:56.492Z,49.20
2018-06-17T16:22:31.016Z,49.34
2018-06-17T16:25:05.558Z,49.13
2018-06-17T16:27:40.176Z,52.23
2018-06-17T16:30:14.824Z,49.33
2018-06-17T16:32:49.528Z,52.25
2018-06-17T16:35:23.979Z,52.14
2018-06-17T16:37:58.501Z,55.84
2018-06-17T16:40:32.972Z,52.79
2018-06-17T16:43:07.399Z,52.86
2018-06-17T16:45:41.849Z,50.87
2018-06-17T16:48:16.432Z,52.77
2018-06-17T16:50:56.413Z,51.74
2018-06-17T16:53:36.305Z,51.21
2018-06-17T16:56:16.224Z,50.30
2018-06-17T16:58:56.192Z,52.02
2018-06-17T17:01:30.746Z,52.99
2018-06-17T17:04:05.209Z,53.48
2018-06-17T17:06:39.877Z,54.74
2018-06-17T17:09:14.448Z,54.39
2018-06-17T17:11:48.904Z,54.32
2018-06-17T17:14:23.688Z,55.30
2018-06-17T17:16:58.364Z,54.04
2018-06-17T17:19:33.257Z,53.98
2018-06-17T17:22:07.707Z,53.44
2018-06-17T17:24:42.413Z,55.09
2018-06-17T17:27:17.080Z,54.30
2018-06-17T17:29:52.157Z,53.40
2018-06-17T17:32:31.859Z,53.68
2018-06-17T17:35:12.313Z,53.59
2018-06-17T17:37:52.113Z,53.96
2018-06-17T17:40:31.896Z,54.47
2018-06-17T17:43:06.516Z,55.10
2018-06-17T17:45:46.396Z,52.72
2018-06-17T17:48:21.360Z,53.00
2018-06-17T17:50:55.845Z,56.98
2018-06-17T17:53:30.769Z,51.81
2018-06-17T17:56:05.588Z,62.22
2018-06-17T17:58:40.040Z,54.29
2018-06-17T18:01:14.576Z,50.67
2018-06-17T18:03:49.057Z,56.73
2018-06-17T18:06:23.543Z,53.56
2018-06-17T18:09:04.623Z,53.69
2018-06-17T18:11:39.296Z,49.97
2018-06-17T18:14:13.862Z,54.28
2018-06-17T18:16:48.560Z,55.73
2018-06-17T18:19:22.968Z,49.36
2018-06-17T18:21:57.754Z,52.50
2018-06-17T18:24:32.424Z,50.43
2018-06-17T18:27:12.160Z,49.82
2018-06-17T18:29:52.051Z,51.99
2018-06-17T18:32:31.985Z,53.22
2018-06-17T18:35:11.817Z,53.68
2018-06-17T18:37:46.348Z,53.54
2018-06-17T18:43:01.136Z,53.95
2018-06-17T18:45:35.597Z,55.28
2018-06-17T18:48:10.233Z,54.56
2018-06-17T18:50:44.801Z,55.86
2018-06-17T18:53:22.601Z,55.18
2018-06-17T18:55:57.081Z,56.15
2018-06-17T18:58:31.568Z,57.31
2018-06-17T19:01:06.192Z,56.89
2018-06-17T19:03:40.846Z,57.68
2018-06-17T19:06:15.317Z,57.84
2018-06-17T19:08:55.283Z,58.48
2018-06-17T19:11:35.109Z,59.26
2018-06-17T19:14:14.965Z,57.75
2018-06-17T19:16:55.168Z,58.86
2018-06-17T19:19:29.748Z,57.40
2018-06-17T19:22:04.289Z,58.02
2018-06-17T19:24:38.886Z,58.04
2018-06-17T19:27:13.489Z,58.28
2018-06-17T19:29:47.877Z,58.64
2018-06-17T19:32:22.324Z,59.85
2018-06-17T19:34:56.816Z,59.28
2018-06-17T19:37:31.477Z,59.49
2018-06-17T19:40:06.217Z,59.55
2018-06-17T19:42:40.836Z,58.86
2018-06-17T19:45:15.355Z,59.23
2018-06-17T19:47:49.917Z,59.69
2018-06-17T19:50:29.653Z,59.35
2018-06-17T19:53:09.626Z,59.21
2018-06-17T19:55:49.765Z,59.92
2018-06-17T19:58:29.707Z,60.05
2018-06-17T20:01:05.037Z,60.00
2018-06-17T20:03:39.676Z,60.37
2018-06-17T20:06:14.285Z,60.72
2018-06-17T20:08:48.772Z,60.16
2018-06-17T20:11:23.136Z,61.57
2018-06-17T20:13:57.608Z,60.90
2018-06-17T20:16:31.981Z,61.52
2018-06-17T20:19:06.818Z,60.62
2018-06-17T20:21:41.367Z,61.13
2018-06-17T20:24:15.832Z,61.28
2018-06-17T20:26:50.275Z,60.91
2018-06-17T20:29:24.845Z,60.90
2018-06-17T20:32:04.592Z,60.74
2018-06-17T20:34:44.404Z,60.57
2018-06-17T20:37:24.404Z,60.88
2018-06-17T20:40:04.246Z,61.46
2018-06-17T20:42:44.177Z,61.10
2018-06-17T20:45:18.812Z,61.78
2018-06-17T20:47:53.901Z,61.79
2018-06-17T20:50:28.421Z,62.05
2018-06-17T20:53:02.817Z,61.42
2018-06-17T20:55:37.457Z,62.22
2018-06-17T20:58:11.993Z,61.44
2018-06-17T21:00:46.796Z,61.55
2018-06-17T21:03:21.362Z,61.85
2018-06-17T21:05:55.884Z,62.23
2018-06-17T21:08:30.373Z,61.57
2018-06-17T21:11:04.897Z,62.41
2018-06-17T21:13:39.368Z,62.56
2018-06-17T21:16:13.782Z,62.90
2018-06-17T21:18:53.764Z,61.98
2018-06-17T21:21:33.586Z,61.66
2018-06-17T21:24:13.733Z,61.28
2018-06-17T21:26:53.516Z,61.75
2018-06-17T21:29:28.037Z,63.87
2018-06-17T21:32:02.496Z,63.19
2018-06-17T21:34:36.974Z,65.01
2018-06-17T21:37:11.581Z,63.53
2018-06-17T21:39:46.350Z,66.93
2018-06-17T21:42:20.844Z,65.35
2018-06-17T21:44:55.243Z,66.49
2018-06-17T21:47:29.633Z,67.56
2018-06-17T21:50:04.192Z,67.38
2018-06-17T21:52:38.868Z,68.14
2018-06-17T21:55:13.400Z,69.56
2018-06-17T21:57:47.968Z,65.66
2018-06-17T22:00:22.525Z,64.61
2018-06-17T22:02:57.133Z,64.51
2018-06-17T22:05:31.657Z,64.16
2018-06-17T22:08:11.365Z,64.47
2018-06-17T22:10:51.159Z,65.06
2018-06-17T22:13:29.873Z,64.91
2018-06-17T22:16:10.241Z,64.12
2018-06-17T22:18:44.819Z,63.39
2018-06-17T22:21:19.408Z,64.02
2018-06-17T22:23:53.814Z,63.90
2018-06-17T22:26:28.577Z,63.81
2018-06-17T22:29:03.157Z,64.31
2018-06-17T22:31:38.424Z,65.12
2018-06-17T22:34:13.168Z,64.24
2018-06-17T22:36:47.717Z,64.76
2018-06-17T22:39:22.249Z,64.35
2018-06-17T22:41:56.592Z,64.33
2018-06-17T22:44:31.089Z,63.98
2018-06-17T22:47:05.732Z,64.32
2018-06-17T22:49:40.134Z,64.49
2018-06-17T22:52:14.532Z,64.33
2018-06-17T22:54:51.091Z,63.99
2018-06-17T22:57:30.867Z,64.39
2018-06-17T23:00:10.917Z,64.54
2018-06-17T23:02:50.722Z,65.16
2018-06-17T23:05:30.672Z,65.87
2018-06-17T23:08:10.653Z,65.67
2018-06-17T23:10:45.296Z,65.73
2018-06-17T23:25:14.659Z,67.25
2018-06-17T23:27:49.083Z,67.41
2018-06-17T23:30:23.483Z,67.24
2018-06-17T23:32:57.748Z,66.72
2018-06-17T23:35:32.131Z,67.46
2018-06-17T23:38:06.560Z,67.12
2018-06-17T23:40:40.832Z,66.02
2018-06-17T23:43:15.423Z,65.30
2018-06-17T23:45:55.333Z,65.15
2018-06-17T23:48:35.041Z,65.49
2018-06-17T23:51:14.905Z,64.24
2018-06-17T23:53:54.814Z,64.58
2018-06-17T23:56:29.265Z,64.20
2018-06-17T23:59:03.859Z,63.95
